River Hills, Wisconsin
Current Conditions -  °F | °C
As of 3:45 PM on Sunday 23 Nov 2014 (Local Time) from KMWC Reporting Station
Drizzle Drizzle  
Wind Chill: 45°   Ceiling: 600
Heat Index: 48°   Visibility: 3mi
Dew Point: 45°   Wind: 8mph
Humidity: 87%   Direction: 150°SSE
Pressure: 29.48"   Gusts: NA
Location:  43.1576°N, 87.9144°W
Report Text: KMWC 232145Z AUTO 15007KT 3SM DZ OVC006 09/07 A2948
Loading
Personal Weather Stations






























Interactive Weather Map New forecast layout! Learn more

10-Day Weather Forecast

Advertisements
Track Severe Weather on mobile